createdAt,value
2023-01-04T00:01:07.194Z,26.40
2023-01-04T00:03:34.538Z,26.40
2023-01-04T00:06:03.511Z,26.40
2023-01-04T00:08:31.034Z,26.40
2023-01-04T00:11:06.525Z,26.40
2023-01-04T00:13:34.361Z,26.40
2023-01-04T00:16:08.173Z,26.40
2023-01-04T00:18:36.500Z,26.30
2023-01-04T00:21:23.659Z,26.40
2023-01-04T00:23:52.474Z,26.30
2023-01-04T00:26:25.423Z,26.30
2023-01-04T00:28:56.445Z,26.40
2023-01-04T00:31:24.624Z,26.30
2023-01-04T00:33:54.481Z,26.30
2023-01-04T00:36:21.520Z,26.30
2023-01-04T00:38:48.164Z,26.30
2023-01-04T00:41:34.691Z,26.20
2023-01-04T00:44:03.455Z,26.30
2023-01-04T00:46:31.439Z,26.30
2023-01-04T00:49:00.793Z,26.20
2023-01-04T00:51:28.843Z,26.30
2023-01-04T00:53:55.874Z,26.20
2023-01-04T00:56:22.723Z,26.20
2023-01-04T00:58:49.380Z,26.20
2023-01-04T01:01:16.193Z,26.20
2023-01-04T01:03:44.448Z,26.20
2023-01-04T01:06:12.416Z,26.20
2023-01-04T01:08:39.218Z,26.30
2023-01-04T01:11:09.173Z,26.20
2023-01-04T01:13:37.046Z,26.20
2023-01-04T01:16:09.613Z,26.20
2023-01-04T01:18:37.964Z,26.20
2023-01-04T01:21:14.216Z,26.20
2023-01-04T01:23:41.464Z,26.20
2023-01-04T01:26:12.945Z,26.10
2023-01-04T01:28:39.722Z,26.20
2023-01-04T01:31:15.230Z,26.10
2023-01-04T01:33:44.010Z,26.10
2023-01-04T01:36:12.302Z,26.10
2023-01-04T01:38:39.719Z,26.10
2023-01-04T01:41:07.794Z,26.10
2023-01-04T01:43:50.920Z,26.10
2023-01-04T01:46:23.953Z,26.10
2023-01-04T01:48:53.943Z,26.10
2023-01-04T01:51:21.783Z,26.10
2023-01-04T01:53:53.061Z,26.10
2023-01-04T01:56:19.960Z,26.10
2023-01-04T01:58:51.967Z,26.10
2023-01-04T02:01:18.842Z,26.10
2023-01-04T02:03:45.652Z,26.10
2023-01-04T02:06:17.640Z,26.10
2023-01-04T02:08:44.982Z,26.10
2023-01-04T02:11:11.618Z,26.10
2023-01-04T02:13:59.424Z,26.10
2023-01-04T02:17:09.613Z,26.10
2023-01-04T02:20:35.287Z,26.10
2023-01-04T02:23:26.433Z,26.10
2023-01-04T02:26:26.764Z,26.00
2023-01-04T02:29:27.061Z,26.00
2023-01-04T02:31:56.587Z,26.00
2023-01-04T02:34:26.194Z,26.00
2023-01-04T02:36:58.747Z,26.00
2023-01-04T02:39:52.881Z,26.00
2023-01-04T02:43:38.793Z,26.00
2023-01-04T02:46:12.240Z,26.00
2023-01-04T02:48:59.277Z,26.00
2023-01-04T02:51:32.437Z,26.00
2023-01-04T02:54:03.800Z,25.90
2023-01-04T02:57:12.740Z,26.00
2023-01-04T03:00:03.610Z,26.00
2023-01-04T03:03:07.297Z,25.90
2023-01-04T03:06:07.181Z,26.00
2023-01-04T03:08:57.918Z,25.90
2023-01-04T03:11:51.822Z,25.90
2023-01-04T03:14:31.867Z,25.90
2023-01-04T03:17:02.709Z,25.90
2023-01-04T03:19:50.495Z,25.90
2023-01-04T03:22:39.374Z,25.90
2023-01-04T03:25:27.400Z,25.90
2023-01-04T03:28:15.002Z,25.90
2023-01-04T03:31:13.445Z,25.90
2023-01-04T03:33:58.965Z,25.90
2023-01-04T03:36:56.468Z,26.00
2023-01-04T03:39:58.133Z,25.90
2023-01-04T03:43:12.552Z,25.90
2023-01-04T03:46:10.211Z,25.90
2023-01-04T03:48:45.032Z,25.90
2023-01-04T03:51:22.767Z,25.90
2023-01-04T03:54:07.050Z,25.90
2023-01-04T03:56:38.046Z,25.90
2023-01-04T03:59:05.311Z,25.90
2023-01-04T04:01:32.196Z,25.90
2023-01-04T04:04:17.592Z,25.90
2023-01-04T04:07:02.758Z,25.90
2023-01-04T04:09:29.377Z,25.90
2023-01-04T04:11:56.258Z,25.90
2023-01-04T04:14:22.918Z,25.90
2023-01-04T04:16:49.753Z,25.90
2023-01-04T04:19:16.422Z,25.90
2023-01-04T04:21:43.029Z,25.90
2023-01-04T04:24:18.151Z,26.00
2023-01-04T04:26:45.011Z,25.90
2023-01-04T04:29:11.844Z,25.90
2023-01-04T04:31:38.568Z,25.90
2023-01-04T04:34:05.267Z,25.90
2023-01-04T04:36:31.967Z,25.90
2023-01-04T04:38:58.614Z,25.90
2023-01-04T04:41:41.265Z,25.90
2023-01-04T04:44:14.139Z,25.90
2023-01-04T04:46:41.779Z,25.90
2023-01-04T04:49:09.427Z,25.90
2023-01-04T04:51:36.672Z,25.90
2023-01-04T04:54:05.167Z,25.90
2023-01-04T04:56:31.852Z,26.00
2023-01-04T04:58:58.502Z,25.90
2023-01-04T05:01:25.165Z,25.90
2023-01-04T05:03:51.838Z,26.00
2023-01-04T05:06:18.502Z,26.00
2023-01-04T05:08:45.133Z,26.00
2023-01-04T05:11:13.391Z,26.00
2023-01-04T05:13:40.708Z,26.00
2023-01-04T05:16:09.368Z,26.00
2023-01-04T05:18:36.457Z,26.00
2023-01-04T05:21:03.274Z,26.00
2023-01-04T05:23:29.844Z,26.00
2023-01-04T05:25:59.807Z,26.00
2023-01-04T05:28:26.690Z,26.00
2023-01-04T05:30:55.353Z,26.00
2023-01-04T05:33:25.472Z,26.00
2023-01-04T05:35:53.267Z,26.00
2023-01-04T05:38:20.842Z,26.00
2023-01-04T05:40:48.190Z,26.00
2023-01-04T05:43:16.185Z,26.00
2023-01-04T05:45:54.971Z,26.00
2023-01-04T05:48:23.985Z,26.00
2023-01-04T05:50:50.595Z,26.00
2023-01-04T05:53:18.213Z,26.00
2023-01-04T05:55:45.557Z,26.00
2023-01-04T05:58:12.221Z,26.00
2023-01-04T06:00:38.806Z,26.00
2023-01-04T06:03:05.694Z,26.00
2023-01-04T06:05:32.474Z,26.00
2023-01-04T06:07:59.130Z,26.00
2023-01-04T06:10:25.873Z,26.00
2023-01-04T06:12:52.556Z,26.00
2023-01-04T06:15:19.248Z,26.00
2023-01-04T06:17:45.912Z,26.00
2023-01-04T06:20:12.758Z,26.00
2023-01-04T06:22:41.608Z,26.00
2023-01-04T06:25:09.508Z,26.00
2023-01-04T06:27:36.168Z,25.90
2023-01-04T06:30:03.247Z,26.00
2023-01-04T06:32:29.940Z,26.00
2023-01-04T06:34:56.703Z,26.00
2023-01-04T06:37:23.480Z,26.00
2023-01-04T06:39:50.191Z,26.00
2023-01-04T06:42:35.579Z,26.00
2023-01-04T06:45:02.335Z,26.00
2023-01-04T06:47:28.920Z,26.10
2023-01-04T06:49:55.557Z,26.00
2023-01-04T06:52:22.424Z,26.00
2023-01-04T06:54:49.038Z,26.00
2023-01-04T06:57:15.612Z,26.00
2023-01-04T06:59:42.223Z,26.00
2023-01-04T07:02:13.538Z,26.00
2023-01-04T07:04:41.068Z,26.00
2023-01-04T07:07:07.762Z,26.00
2023-01-04T07:09:34.364Z,26.00
2023-01-04T07:12:00.936Z,26.00
2023-01-04T07:14:27.559Z,26.00
2023-01-04T07:16:54.312Z,26.00
2023-01-04T07:19:20.904Z,25.90
2023-01-04T07:21:47.535Z,26.00
2023-01-04T07:24:14.121Z,25.90
2023-01-04T07:26:40.752Z,26.00
2023-01-04T07:29:17.023Z,26.00
2023-01-04T07:31:49.436Z,26.00
2023-01-04T07:34:18.125Z,26.00
2023-01-04T07:36:46.105Z,26.00
2023-01-04T07:39:12.937Z,26.00
2023-01-04T07:41:41.013Z,26.10
2023-01-04T07:44:09.356Z,26.00
2023-01-04T07:46:36.343Z,26.00
2023-01-04T07:49:03.689Z,26.00
2023-01-04T07:51:31.241Z,26.00
2023-01-04T07:53:58.243Z,26.00
2023-01-04T07:56:24.912Z,26.00
2023-01-04T07:58:56.842Z,26.00
2023-01-04T08:01:25.403Z,26.00
2023-01-04T08:03:53.151Z,26.00
2023-01-04T08:06:21.386Z,26.00
2023-01-04T08:08:48.508Z,26.00
2023-01-04T08:11:17.840Z,26.00
2023-01-04T08:13:44.780Z,26.00
2023-01-04T08:16:19.631Z,26.00
2023-01-04T08:18:46.266Z,26.00
2023-01-04T08:21:12.967Z,26.00
2023-01-04T08:23:39.687Z,26.00
2023-01-04T08:26:09.673Z,26.00
2023-01-04T08:28:36.910Z,26.10
2023-01-04T08:31:18.879Z,26.00
2023-01-04T08:33:46.328Z,26.10
2023-01-04T08:36:24.231Z,26.10
2023-01-04T08:39:00.900Z,26.10
2023-01-04T08:44:19.727Z,26.00
2023-01-04T08:46:46.545Z,26.00
2023-01-04T08:49:13.581Z,26.10
2023-01-04T08:51:41.006Z,26.10
2023-01-04T08:54:07.897Z,26.10
2023-01-04T08:56:34.613Z,26.10
2023-01-04T08:59:01.881Z,26.00
2023-01-04T09:01:28.944Z,26.10
2023-01-04T09:03:56.773Z,26.10
2023-01-04T09:06:23.540Z,26.00
2023-01-04T09:08:50.521Z,26.10
2023-01-04T09:11:19.710Z,26.10
2023-01-04T09:13:47.453Z,26.00
2023-01-04T09:16:19.641Z,26.10
2023-01-04T09:18:47.057Z,26.10
2023-01-04T09:21:16.552Z,26.10
2023-01-04T09:23:44.465Z,26.10
2023-01-04T09:26:21.652Z,26.10
2023-01-04T09:28:52.318Z,26.10
2023-01-04T09:31:23.147Z,26.10
2023-01-04T09:36:36.658Z,26.10
2023-01-04T09:39:03.504Z,26.10
2023-01-04T09:41:34.599Z,26.10
2023-01-04T09:44:04.711Z,26.10
2023-01-04T09:46:55.282Z,26.10
2023-01-04T09:49:39.487Z,26.10
2023-01-04T09:52:43.204Z,26.10
2023-01-04T09:55:38.217Z,26.20
2023-01-04T09:58:16.172Z,26.20
2023-01-04T10:00:46.649Z,26.20
2023-01-04T10:03:23.686Z,26.30
2023-01-04T10:05:53.881Z,26.30
2023-01-04T10:08:21.094Z,26.30
2023-01-04T10:10:52.340Z,26.40
2023-01-04T10:13:43.513Z,26.40
2023-01-04T10:17:12.213Z,26.40
2023-01-04T10:22:59.313Z,26.50
2023-01-04T10:25:34.472Z,26.50
2023-01-04T10:28:11.801Z,26.60
2023-01-04T10:30:59.486Z,26.60
2023-01-04T10:33:43.697Z,26.70
2023-01-04T10:36:20.009Z,26.70
2023-01-04T10:38:57.062Z,26.70
2023-01-04T10:41:27.011Z,26.80
2023-01-04T10:44:17.726Z,26.80
2023-01-04T10:46:52.109Z,26.90
2023-01-04T10:49:27.961Z,26.90
2023-01-04T10:52:17.970Z,26.90
2023-01-04T10:54:54.633Z,27.00
2023-01-04T10:57:45.854Z,27.00
2023-01-04T11:00:19.425Z,27.00
2023-01-04T11:03:04.776Z,27.00
2023-01-04T11:06:08.924Z,27.10
2023-01-04T11:08:52.593Z,27.10
2023-01-04T11:11:36.517Z,27.10
2023-01-04T11:14:04.028Z,27.20
2023-01-04T11:16:31.009Z,27.20
2023-01-04T11:18:58.240Z,27.30
2023-01-04T11:21:35.373Z,27.30
2023-01-04T11:24:30.153Z,27.30
2023-01-04T11:26:53.900Z,27.30
2023-01-04T11:29:41.907Z,27.40
2023-01-04T11:32:22.138Z,27.40
2023-01-04T11:34:53.477Z,27.40
2023-01-04T11:37:35.440Z,27.40
2023-01-04T11:40:17.403Z,27.50
2023-01-04T11:42:49.990Z,27.50
2023-01-04T11:45:25.682Z,27.50
2023-01-04T11:47:57.828Z,27.60
2023-01-04T11:50:37.415Z,27.60
2023-01-04T11:53:21.679Z,27.60
2023-01-04T11:55:48.266Z,27.60
2023-01-04T11:58:17.959Z,27.60
2023-01-04T12:00:55.773Z,27.60
2023-01-04T12:03:32.403Z,27.60
2023-01-04T12:05:59.328Z,27.60
2023-01-04T12:08:33.378Z,27.60
2023-01-04T12:11:02.539Z,27.70
2023-01-04T12:13:31.023Z,27.60
2023-01-04T12:16:22.485Z,27.60
2023-01-04T12:18:49.260Z,27.60
2023-01-04T12:21:20.257Z,27.60
2023-01-04T12:23:47.648Z,27.60
2023-01-04T12:26:15.067Z,27.60
2023-01-04T12:28:44.766Z,27.60
2023-01-04T12:31:21.280Z,27.60
2023-01-04T12:33:55.132Z,27.60
2023-01-04T12:36:40.115Z,27.60
2023-01-04T12:39:47.395Z,27.60
2023-01-04T12:42:21.828Z,27.60
2023-01-04T12:44:51.704Z,27.60
2023-01-04T12:47:36.982Z,27.50
2023-01-04T12:50:14.021Z,27.50
2023-01-04T12:55:31.401Z,27.50
2023-01-04T12:58:03.289Z,27.50
2023-01-04T13:00:51.711Z,27.50
2023-01-04T13:03:18.470Z,27.50
2023-01-04T13:06:07.526Z,27.50
2023-01-04T13:08:41.921Z,27.50
2023-01-04T13:11:35.186Z,27.40
2023-01-04T13:14:08.331Z,27.40
2023-01-04T13:17:04.670Z,27.40
2023-01-04T13:19:31.689Z,27.40
2023-01-04T13:21:58.762Z,27.40
2023-01-04T13:24:36.752Z,27.30
2023-01-04T13:27:08.871Z,27.30
2023-01-04T13:29:36.329Z,27.30
2023-01-04T13:32:14.850Z,27.30
2023-01-04T13:34:49.878Z,27.30
2023-01-04T13:37:38.353Z,27.20
2023-01-04T13:40:17.308Z,27.30
2023-01-04T13:42:49.489Z,27.30
2023-01-04T13:45:42.107Z,27.30
2023-01-04T13:48:15.547Z,27.30
2023-01-04T13:50:47.222Z,27.40
2023-01-04T13:53:23.222Z,27.40
2023-01-04T13:55:52.604Z,27.40
2023-01-04T13:58:25.494Z,27.40
2023-01-04T14:01:14.995Z,27.50
2023-01-04T14:03:53.487Z,27.50
2023-01-04T14:06:26.847Z,27.50
2023-01-04T14:09:04.650Z,27.50
2023-01-04T14:12:06.179Z,27.60
2023-01-04T14:15:00.200Z,27.60
2023-01-04T14:17:41.697Z,27.60
2023-01-04T14:20:11.103Z,27.60
2023-01-04T14:22:46.514Z,27.70
2023-01-04T14:25:32.762Z,27.70
2023-01-04T14:28:28.359Z,27.70
2023-01-04T14:31:01.308Z,27.70
2023-01-04T14:33:42.371Z,27.70
2023-01-04T14:36:32.542Z,27.70
2023-01-04T14:39:08.191Z,27.70
2023-01-04T14:41:40.619Z,27.70
2023-01-04T14:44:14.536Z,27.70
2023-01-04T14:46:43.619Z,27.70
2023-01-04T14:49:10.421Z,27.80
2023-01-04T14:51:58.223Z,27.70
2023-01-04T14:54:26.582Z,27.70
2023-01-04T14:56:54.760Z,27.70
2023-01-04T14:59:23.834Z,27.80
2023-01-04T15:01:55.248Z,27.80
2023-01-04T15:04:22.332Z,27.80
2023-01-04T15:06:55.435Z,27.80
2023-01-04T15:09:22.266Z,27.80
2023-01-04T15:11:48.968Z,27.80
2023-01-04T15:14:15.805Z,27.80
2023-01-04T15:16:42.578Z,27.90
2023-01-04T15:19:09.373Z,27.90
2023-01-04T15:21:40.828Z,27.90
2023-01-04T15:24:08.985Z,27.90
2023-01-04T15:26:35.643Z,27.90
2023-01-04T15:29:02.607Z,27.90
2023-01-04T15:31:32.586Z,27.90
2023-01-04T15:34:03.667Z,28.00
2023-01-04T15:36:30.260Z,28.00
2023-01-04T15:38:56.940Z,28.00
2023-01-04T15:41:42.117Z,28.00
2023-01-04T15:44:11.252Z,28.00
2023-01-04T15:46:38.180Z,28.00
2023-01-04T15:49:04.973Z,28.00
2023-01-04T15:51:31.592Z,28.00
2023-01-04T15:53:58.312Z,28.00
2023-01-04T15:56:25.745Z,28.00
2023-01-04T15:58:54.616Z,28.00
2023-01-04T16:01:22.110Z,28.00
2023-01-04T16:03:53.473Z,28.00
2023-01-04T16:06:21.101Z,28.00
2023-01-04T16:08:49.626Z,27.90
2023-01-04T16:11:19.316Z,28.00
2023-01-04T16:13:47.806Z,28.00
2023-01-04T16:16:15.707Z,27.90
2023-01-04T16:18:50.920Z,28.00
2023-01-04T16:21:21.996Z,27.90
2023-01-04T16:23:56.990Z,27.90
2023-01-04T16:26:25.272Z,27.90
2023-01-04T16:28:54.354Z,27.90
2023-01-04T16:31:22.144Z,27.90
2023-01-04T16:33:52.625Z,27.80
2023-01-04T16:36:19.310Z,27.80
2023-01-04T16:38:47.057Z,27.80
2023-01-04T16:41:16.222Z,27.80
2023-01-04T16:43:51.197Z,27.80
2023-01-04T16:46:26.636Z,27.80
2023-01-04T16:48:55.618Z,27.80
2023-01-04T16:51:24.008Z,27.90
2023-01-04T16:53:51.365Z,27.80
2023-01-04T16:56:20.136Z,27.90
2023-01-04T16:58:48.208Z,27.90
2023-01-04T17:01:16.587Z,27.90
2023-01-04T17:03:44.796Z,27.90
2023-01-04T17:06:18.479Z,27.90
2023-01-04T17:08:46.916Z,27.90
2023-01-04T17:14:15.755Z,27.90
2023-01-04T17:16:42.548Z,27.90
2023-01-04T17:19:09.654Z,27.90
2023-01-04T17:21:36.372Z,27.90
2023-01-04T17:24:03.474Z,27.90
2023-01-04T17:26:31.863Z,27.90
2023-01-04T17:29:01.071Z,27.90
2023-01-04T17:31:33.859Z,27.90
2023-01-04T17:34:00.957Z,27.90
2023-01-04T17:36:27.709Z,27.90
2023-01-04T17:38:54.605Z,27.90
2023-01-04T17:41:23.595Z,28.00
2023-01-04T17:43:53.103Z,27.90
2023-01-04T17:46:23.321Z,28.00
2023-01-04T17:48:58.928Z,28.00
2023-01-04T17:51:39.891Z,28.00
2023-01-04T17:54:08.358Z,28.00
2023-01-04T17:56:36.834Z,28.00
2023-01-04T17:59:06.769Z,28.00
2023-01-04T18:01:33.988Z,28.00
2023-01-04T18:04:02.047Z,28.00
2023-01-04T18:06:31.319Z,28.00
2023-01-04T18:08:59.278Z,28.00
2023-01-04T18:11:25.995Z,28.00
2023-01-04T18:13:53.320Z,28.00
2023-01-04T18:16:28.798Z,28.00
2023-01-04T18:18:58.090Z,28.10
2023-01-04T18:21:30.855Z,28.10
2023-01-04T18:29:33.081Z,28.10
2023-01-04T18:31:59.701Z,28.20
2023-01-04T18:34:26.725Z,28.20
2023-01-04T18:36:53.922Z,28.20
2023-01-04T18:39:20.624Z,28.10
2023-01-04T18:41:47.457Z,28.20
2023-01-04T18:47:02.390Z,28.20
2023-01-04T18:49:29.231Z,28.20
2023-01-04T18:51:55.877Z,28.20
2023-01-04T18:54:22.548Z,28.20
2023-01-04T18:56:49.401Z,28.20
2023-01-04T18:59:19.119Z,28.20
2023-01-04T19:01:46.170Z,28.20
2023-01-04T19:04:13.655Z,28.20
2023-01-04T19:06:40.960Z,28.10
2023-01-04T19:09:07.779Z,28.20
2023-01-04T19:11:35.371Z,28.20
2023-01-04T19:14:03.034Z,28.20
2023-01-04T19:16:31.052Z,28.20
2023-01-04T19:18:59.644Z,28.20
2023-01-04T19:21:26.799Z,28.20
2023-01-04T19:23:53.877Z,28.10
2023-01-04T19:26:21.486Z,28.10
2023-01-04T19:28:48.713Z,28.10
2023-01-04T19:31:16.492Z,28.10
2023-01-04T19:33:43.287Z,28.10
2023-01-04T19:36:12.491Z,28.00
2023-01-04T19:38:40.033Z,28.00
2023-01-04T19:41:07.918Z,28.00
2023-01-04T19:43:35.299Z,28.00
2023-01-04T19:46:01.970Z,27.90
2023-01-04T19:48:30.485Z,27.90
2023-01-04T19:51:08.738Z,27.90
2023-01-04T19:53:35.943Z,27.80
2023-01-04T19:56:02.652Z,27.80
2023-01-04T19:58:29.762Z,27.80
2023-01-04T20:00:56.485Z,27.80
2023-01-04T20:03:26.203Z,27.70
2023-01-04T20:05:53.677Z,27.70
2023-01-04T20:08:20.873Z,27.70
2023-01-04T20:10:57.991Z,27.70
2023-01-04T20:13:25.832Z,27.60
2023-01-04T20:15:52.571Z,27.60
2023-01-04T20:18:20.065Z,27.70
2023-01-04T20:20:47.198Z,27.60
2023-01-04T20:23:15.057Z,27.60
2023-01-04T20:25:44.518Z,27.50
2023-01-04T20:28:11.441Z,27.50
2023-01-04T20:30:38.775Z,27.50
2023-01-04T20:33:06.830Z,27.50
2023-01-04T20:35:37.389Z,27.50
2023-01-04T20:38:03.980Z,27.40
2023-01-04T20:40:30.885Z,27.50
2023-01-04T20:43:16.580Z,27.50
2023-01-04T20:45:44.928Z,27.40
2023-01-04T20:48:12.562Z,27.40
2023-01-04T20:50:39.509Z,27.30
2023-01-04T20:53:06.527Z,27.30
2023-01-04T20:55:40.061Z,27.30
2023-01-04T20:58:14.939Z,27.30
2023-01-04T21:00:42.451Z,27.30
2023-01-04T21:03:11.262Z,27.30
2023-01-04T21:05:40.213Z,27.30
2023-01-04T21:08:07.306Z,27.30
2023-01-04T21:10:35.218Z,27.20
2023-01-04T21:13:03.560Z,27.20
2023-01-04T21:15:30.268Z,27.20
2023-01-04T21:17:56.889Z,27.20
2023-01-04T21:20:24.499Z,27.00
2023-01-04T21:22:51.261Z,27.20
2023-01-04T21:25:17.874Z,27.20
2023-01-04T21:27:44.633Z,27.20
2023-01-04T21:30:11.972Z,27.20
2023-01-04T21:32:38.883Z,27.20
2023-01-04T21:35:06.302Z,27.20
2023-01-04T21:37:33.067Z,27.10
2023-01-04T21:39:59.670Z,27.10
2023-01-04T21:42:26.313Z,27.10
2023-01-04T21:44:52.947Z,27.10
2023-01-04T21:47:19.524Z,27.10
2023-01-04T21:49:47.235Z,27.10
2023-01-04T21:52:13.976Z,27.10
2023-01-04T21:54:40.592Z,26.90
2023-01-04T21:57:07.972Z,27.10
2023-01-04T21:59:35.571Z,27.10
2023-01-04T22:02:02.286Z,27.10
2023-01-04T22:04:29.013Z,27.10
2023-01-04T22:06:55.702Z,27.10
2023-01-04T22:09:22.431Z,27.10
2023-01-04T22:11:50.063Z,27.10
2023-01-04T22:14:17.836Z,27.10
2023-01-04T22:16:44.484Z,27.00
2023-01-04T22:19:12.644Z,27.00
2023-01-04T22:21:39.386Z,27.00
2023-01-04T22:24:06.570Z,27.00
2023-01-04T22:26:34.200Z,27.00
2023-01-04T22:29:01.655Z,27.00
2023-01-04T22:31:28.326Z,27.00
2023-01-04T22:33:55.292Z,27.00
2023-01-04T22:36:23.569Z,27.00
2023-01-04T22:38:55.794Z,27.00
2023-01-04T22:41:24.898Z,27.00
2023-01-04T22:43:56.466Z,27.00
2023-01-04T22:46:24.291Z,26.90
2023-01-04T22:48:51.095Z,27.00
2023-01-04T22:51:18.666Z,26.90
2023-01-04T22:53:45.881Z,26.90
2023-01-04T22:56:20.987Z,26.90
2023-01-04T22:58:53.325Z,26.90
2023-01-04T23:01:28.324Z,26.90
2023-01-04T23:03:55.829Z,26.90
2023-01-04T23:06:23.836Z,26.90
2023-01-04T23:08:56.147Z,26.90
2023-01-04T23:11:23.070Z,26.80
2023-01-04T23:13:50.405Z,26.90
2023-01-04T23:16:17.862Z,26.90
2023-01-04T23:18:45.003Z,26.90
2023-01-04T23:21:12.737Z,26.80
2023-01-04T23:23:39.922Z,26.80
2023-01-04T23:26:15.057Z,26.80
2023-01-04T23:28:42.173Z,26.80
2023-01-04T23:31:11.618Z,26.80
2023-01-04T23:33:38.503Z,26.80
2023-01-04T23:36:17.936Z,26.80
2023-01-04T23:38:49.356Z,26.80
2023-01-04T23:41:15.955Z,26.80
2023-01-04T23:43:42.650Z,26.80
2023-01-04T23:46:17.785Z,26.80
2023-01-04T23:48:44.827Z,26.80
2023-01-04T23:51:15.091Z,26.70
2023-01-04T23:53:41.764Z,26.70
2023-01-04T23:56:15.106Z,26.80
2023-01-04T23:58:42.405Z,26.70
